sensor_id;sensor_type;location;lat;lon;timestamp;P1;durP1;ratioP1;P2;durP2;ratioP2
60086;SDS011;45960;53.630;55.972;2023-08-06T00:00:27;31.73;;;15.18;;
60086;SDS011;45960;53.630;55.972;2023-08-06T00:01:29;23.48;;;15.02;;
60086;SDS011;45960;53.630;55.972;2023-08-06T00:02:30;32.05;;;15.02;;
60086;SDS011;45960;53.630;55.972;2023-08-06T00:03:31;28.70;;;15.90;;
60086;SDS011;45960;53.630;55.972;2023-08-06T00:04:32;28.35;;;14.57;;
60086;SDS011;45960;53.630;55.972;2023-08-06T00:05:33;25.42;;;15.75;;
60086;SDS011;45960;53.630;55.972;2023-08-06T00:06:34;28.83;;;15.38;;
60086;SDS011;45960;53.630;55.972;2023-08-06T00:07:35;25.85;;;13.10;;
60086;SDS011;45960;53.630;55.972;2023-08-06T00:08:36;25.00;;;14.52;;
60086;SDS011;45960;53.630;55.972;2023-08-06T00:09:37;24.20;;;13.50;;
60086;SDS011;45960;53.630;55.972;2023-08-06T00:10:39;21.80;;;13.38;;
60086;SDS011;45960;53.630;55.972;2023-08-06T00:11:41;26.00;;;13.68;;
60086;SDS011;45960;53.630;55.972;2023-08-06T00:12:44;30.92;;;14.15;;
60086;SDS011;45960;53.630;55.972;2023-08-06T00:13:45;22.27;;;13.25;;
60086;SDS011;45960;53.630;55.972;2023-08-06T00:14:50;23.55;;;12.73;;
60086;SDS011;45960;53.630;55.972;2023-08-06T00:15:51;20.83;;;11.95;;
60086;SDS011;45960;53.630;55.972;2023-08-06T00:16:52;22.48;;;12.98;;
60086;SDS011;45960;53.630;55.972;2023-08-06T00:17:54;21.55;;;12.88;;
60086;SDS011;45960;53.630;55.972;2023-08-06T00:18:55;28.15;;;13.43;;
60086;SDS011;45960;53.630;55.972;2023-08-06T00:19:56;30.65;;;14.40;;
60086;SDS011;45960;53.630;55.972;2023-08-06T00:20:57;22.48;;;12.82;;
60086;SDS011;45960;53.630;55.972;2023-08-06T00:21:58;19.25;;;12.07;;
60086;SDS011;45960;53.630;55.972;2023-08-06T00:22:59;23.15;;;13.20;;
60086;SDS011;45960;53.630;55.972;2023-08-06T00:24:00;27.95;;;13.27;;
60086;SDS011;45960;53.630;55.972;2023-08-06T00:25:02;23.45;;;13.45;;
60086;SDS011;45960;53.630;55.972;2023-08-06T00:26:06;20.65;;;14.35;;
60086;SDS011;45960;53.630;55.972;2023-08-06T00:27:07;29.20;;;14.80;;
60086;SDS011;45960;53.630;55.972;2023-08-06T00:28:09;32.85;;;14.07;;
60086;SDS011;45960;53.630;55.972;2023-08-06T00:29:10;28.75;;;15.23;;
60086;SDS011;45960;53.630;55.972;2023-08-06T00:30:11;25.27;;;14.95;;
60086;SDS011;45960;53.630;55.972;2023-08-06T00:31:12;25.90;;;14.95;;
60086;SDS011;45960;53.630;55.972;2023-08-06T00:32:13;30.05;;;15.45;;
60086;SDS011;45960;53.630;55.972;2023-08-06T00:33:14;29.20;;;15.82;;
60086;SDS011;45960;53.630;55.972;2023-08-06T00:34:15;36.58;;;16.35;;
60086;SDS011;45960;53.630;55.972;2023-08-06T00:35:16;30.98;;;15.77;;
60086;SDS011;45960;53.630;55.972;2023-08-06T00:36:17;24.88;;;15.43;;
60086;SDS011;45960;53.630;55.972;2023-08-06T00:37:19;22.77;;;13.88;;
60086;SDS011;45960;53.630;55.972;2023-08-06T00:38:20;29.58;;;15.00;;
60086;SDS011;45960;53.630;55.972;2023-08-06T00:39:22;23.60;;;15.30;;
60086;SDS011;45960;53.630;55.972;2023-08-06T00:40:24;22.63;;;14.15;;
60086;SDS011;45960;53.630;55.972;2023-08-06T00:41:25;23.33;;;14.32;;
60086;SDS011;45960;53.630;55.972;2023-08-06T00:42:26;26.42;;;14.77;;
60086;SDS011;45960;53.630;55.972;2023-08-06T00:43:27;26.80;;;13.77;;
60086;SDS011;45960;53.630;55.972;2023-08-06T00:44:29;17.27;;;11.38;;
60086;SDS011;45960;53.630;55.972;2023-08-06T00:45:30;28.95;;;13.20;;
60086;SDS011;45960;53.630;55.972;2023-08-06T00:46:36;25.33;;;12.38;;
60086;SDS011;45960;53.630;55.972;2023-08-06T00:47:37;19.73;;;12.65;;
60086;SDS011;45960;53.630;55.972;2023-08-06T00:48:40;23.77;;;13.07;;
60086;SDS011;45960;53.630;55.972;2023-08-06T00:49:44;16.92;;;11.45;;
60086;SDS011;45960;53.630;55.972;2023-08-06T00:50:45;25.65;;;13.00;;
60086;SDS011;45960;53.630;55.972;2023-08-06T00:51:46;28.10;;;12.43;;
60086;SDS011;45960;53.630;55.972;2023-08-06T00:52:48;25.58;;;12.65;;
60086;SDS011;45960;53.630;55.972;2023-08-06T00:53:50;23.02;;;13.13;;
60086;SDS011;45960;53.630;55.972;2023-08-06T00:54:53;28.95;;;14.07;;
60086;SDS011;45960;53.630;55.972;2023-08-06T00:55:54;23.73;;;13.57;;
60086;SDS011;45960;53.630;55.972;2023-08-06T00:56:55;28.05;;;13.90;;
60086;SDS011;45960;53.630;55.972;2023-08-06T00:57:59;23.83;;;14.88;;
60086;SDS011;45960;53.630;55.972;2023-08-06T00:59:00;25.30;;;14.18;;
60086;SDS011;45960;53.630;55.972;2023-08-06T01:00:02;28.33;;;13.38;;
60086;SDS011;45960;53.630;55.972;2023-08-06T01:01:06;25.25;;;13.35;;
60086;SDS011;45960;53.630;55.972;2023-08-06T01:02:07;21.25;;;13.45;;
60086;SDS011;45960;53.630;55.972;2023-08-06T01:03:08;27.20;;;14.10;;
60086;SDS011;45960;53.630;55.972;2023-08-06T01:04:09;27.00;;;14.18;;
60086;SDS011;45960;53.630;55.972;2023-08-06T01:05:12;21.80;;;14.02;;
60086;SDS011;45960;53.630;55.972;2023-08-06T01:06:14;29.10;;;14.60;;
60086;SDS011;45960;53.630;55.972;2023-08-06T01:13:50;24.70;;;13.30;;
60086;SDS011;45960;53.630;55.972;2023-08-06T01:16:32;24.48;;;13.38;;
60086;SDS011;45960;53.630;55.972;2023-08-06T01:17:35;26.33;;;12.98;;
60086;SDS011;45960;53.630;55.972;2023-08-06T01:18:36;23.65;;;13.55;;
60086;SDS011;45960;53.630;55.972;2023-08-06T01:19:39;18.33;;;12.75;;
60086;SDS011;45960;53.630;55.972;2023-08-06T01:20:41;19.20;;;11.95;;
60086;SDS011;45960;53.630;55.972;2023-08-06T01:21:42;23.42;;;12.65;;
60086;SDS011;45960;53.630;55.972;2023-08-06T01:22:43;22.63;;;13.20;;
60086;SDS011;45960;53.630;55.972;2023-08-06T01:23:45;27.92;;;13.27;;
60086;SDS011;45960;53.630;55.972;2023-08-06T01:24:48;22.23;;;13.18;;
60086;SDS011;45960;53.630;55.972;2023-08-06T01:30:16;17.75;;;10.35;;
60086;SDS011;45960;53.630;55.972;2023-08-06T01:31:22;17.50;;;10.65;;
60086;SDS011;45960;53.630;55.972;2023-08-06T01:32:27;20.67;;;11.48;;
60086;SDS011;45960;53.630;55.972;2023-08-06T01:33:32;20.00;;;9.77;;
60086;SDS011;45960;53.630;55.972;2023-08-06T01:34:36;27.40;;;11.95;;
60086;SDS011;45960;53.630;55.972;2023-08-06T01:35:41;21.08;;;12.15;;
60086;SDS011;45960;53.630;55.972;2023-08-06T01:36:43;18.10;;;12.27;;
60086;SDS011;45960;53.630;55.972;2023-08-06T01:37:45;27.88;;;11.95;;
60086;SDS011;45960;53.630;55.972;2023-08-06T01:38:47;21.40;;;11.77;;
60086;SDS011;45960;53.630;55.972;2023-08-06T01:39:49;23.95;;;14.60;;
60086;SDS011;45960;53.630;55.972;2023-08-06T01:40:50;21.02;;;14.13;;
60086;SDS011;45960;53.630;55.972;2023-08-06T01:41:52;22.35;;;13.52;;
60086;SDS011;45960;53.630;55.972;2023-08-06T01:42:53;17.55;;;10.43;;
60086;SDS011;45960;53.630;55.972;2023-08-06T01:43:54;21.58;;;12.10;;
60086;SDS011;45960;53.630;55.972;2023-08-06T01:44:55;17.20;;;10.38;;
60086;SDS011;45960;53.630;55.972;2023-08-06T01:45:56;17.10;;;10.70;;
60086;SDS011;45960;53.630;55.972;2023-08-06T01:46:58;21.23;;;11.63;;
60086;SDS011;45960;53.630;55.972;2023-08-06T01:48:00;20.58;;;10.27;;
60086;SDS011;45960;53.630;55.972;2023-08-06T01:49:01;21.25;;;10.05;;
60086;SDS011;45960;53.630;55.972;2023-08-06T01:50:02;17.20;;;10.73;;
60086;SDS011;45960;53.630;55.972;2023-08-06T01:51:04;16.98;;;10.13;;
60086;SDS011;45960;53.630;55.972;2023-08-06T01:52:06;20.48;;;9.73;;
60086;SDS011;45960;53.630;55.972;2023-08-06T01:53:08;14.07;;;8.82;;
60086;SDS011;45960;53.630;55.972;2023-08-06T01:54:09;14.07;;;8.05;;
60086;SDS011;45960;53.630;55.972;2023-08-06T01:55:10;14.80;;;8.82;;
60086;SDS011;45960;53.630;55.972;2023-08-06T01:56:12;14.57;;;8.27;;
60086;SDS011;45960;53.630;55.972;2023-08-06T01:57:13;18.67;;;9.10;;
60086;SDS011;45960;53.630;55.972;2023-08-06T01:58:14;13.10;;;7.47;;
60086;SDS011;45960;53.630;55.972;2023-08-06T01:59:16;14.50;;;8.10;;
60086;SDS011;45960;53.630;55.972;2023-08-06T02:00:17;17.20;;;8.48;;
60086;SDS011;45960;53.630;55.972;2023-08-06T02:01:18;12.35;;;7.90;;
60086;SDS011;45960;53.630;55.972;2023-08-06T02:02:19;16.50;;;8.27;;
60086;SDS011;45960;53.630;55.972;2023-08-06T02:03:21;16.92;;;7.15;;
60086;SDS011;45960;53.630;55.972;2023-08-06T02:04:23;17.23;;;8.23;;
60086;SDS011;45960;53.630;55.972;2023-08-06T02:05:24;21.88;;;8.35;;
60086;SDS011;45960;53.630;55.972;2023-08-06T02:06:26;15.77;;;7.72;;
60086;SDS011;45960;53.630;55.972;2023-08-06T02:07:27;13.45;;;7.93;;
60086;SDS011;45960;53.630;55.972;2023-08-06T02:08:28;13.35;;;8.60;;
60086;SDS011;45960;53.630;55.972;2023-08-06T02:09:29;18.05;;;8.23;;
60086;SDS011;45960;53.630;55.972;2023-08-06T02:10:31;18.52;;;8.15;;
60086;SDS011;45960;53.630;55.972;2023-08-06T02:11:32;16.02;;;7.28;;
60086;SDS011;45960;53.630;55.972;2023-08-06T02:12:33;17.90;;;6.93;;
60086;SDS011;45960;53.630;55.972;2023-08-06T02:13:34;12.88;;;7.88;;
60086;SDS011;45960;53.630;55.972;2023-08-06T02:14:36;18.85;;;7.50;;
60086;SDS011;45960;53.630;55.972;2023-08-06T02:15:43;13.15;;;6.35;;
60086;SDS011;45960;53.630;55.972;2023-08-06T02:16:48;11.70;;;6.80;;
60086;SDS011;45960;53.630;55.972;2023-08-06T02:17:50;14.68;;;7.38;;
60086;SDS011;45960;53.630;55.972;2023-08-06T02:19:11;15.07;;;7.07;;
60086;SDS011;45960;53.630;55.972;2023-08-06T02:20:12;13.75;;;6.90;;
60086;SDS011;45960;53.630;55.972;2023-08-06T02:21:13;10.90;;;6.75;;
60086;SDS011;45960;53.630;55.972;2023-08-06T02:22:14;20.80;;;6.60;;
60086;SDS011;45960;53.630;55.972;2023-08-06T02:23:16;19.63;;;6.78;;
60086;SDS011;45960;53.630;55.972;2023-08-06T02:24:18;15.63;;;5.95;;
60086;SDS011;45960;53.630;55.972;2023-08-06T02:25:19;11.27;;;7.03;;
60086;SDS011;45960;53.630;55.972;2023-08-06T02:26:21;16.27;;;7.18;;
60086;SDS011;45960;53.630;55.972;2023-08-06T02:27:22;12.20;;;7.15;;
60086;SDS011;45960;53.630;55.972;2023-08-06T02:28:23;18.10;;;7.03;;
60086;SDS011;45960;53.630;55.972;2023-08-06T02:29:24;12.77;;;7.80;;
60086;SDS011;45960;53.630;55.972;2023-08-06T02:30:25;15.10;;;7.80;;
60086;SDS011;45960;53.630;55.972;2023-08-06T02:31:26;12.05;;;7.15;;
60086;SDS011;45960;53.630;55.972;2023-08-06T02:32:28;13.77;;;7.28;;
60086;SDS011;45960;53.630;55.972;2023-08-06T02:33:33;14.52;;;7.40;;
60086;SDS011;45960;53.630;55.972;2023-08-06T02:34:35;16.00;;;7.53;;
60086;SDS011;45960;53.630;55.972;2023-08-06T02:35:36;13.85;;;7.03;;
60086;SDS011;45960;53.630;55.972;2023-08-06T02:36:37;12.07;;;7.65;;
60086;SDS011;45960;53.630;55.972;2023-08-06T02:37:38;17.23;;;8.05;;
60086;SDS011;45960;53.630;55.972;2023-08-06T02:38:39;14.68;;;7.10;;
60086;SDS011;45960;53.630;55.972;2023-08-06T02:39:40;11.85;;;6.70;;
60086;SDS011;45960;53.630;55.972;2023-08-06T02:40:45;20.50;;;7.07;;
60086;SDS011;45960;53.630;55.972;2023-08-06T02:41:47;13.13;;;6.90;;
60086;SDS011;45960;53.630;55.972;2023-08-06T02:42:48;10.52;;;7.18;;
60086;SDS011;45960;53.630;55.972;2023-08-06T02:43:50;17.50;;;7.10;;
60086;SDS011;45960;53.630;55.972;2023-08-06T02:44:52;10.48;;;6.90;;
60086;SDS011;45960;53.630;55.972;2023-08-06T02:45:59;12.48;;;6.57;;
60086;SDS011;45960;53.630;55.972;2023-08-06T02:47:01;19.65;;;7.10;;
60086;SDS011;45960;53.630;55.972;2023-08-06T02:48:03;16.67;;;7.72;;
60086;SDS011;45960;53.630;55.972;2023-08-06T02:49:04;10.63;;;5.85;;
60086;SDS011;45960;53.630;55.972;2023-08-06T02:50:06;11.23;;;6.82;;
60086;SDS011;45960;53.630;55.972;2023-08-06T02:51:08;14.55;;;7.20;;
60086;SDS011;45960;53.630;55.972;2023-08-06T02:52:09;14.85;;;6.95;;
60086;SDS011;45960;53.630;55.972;2023-08-06T02:53:10;12.38;;;7.32;;
60086;SDS011;45960;53.630;55.972;2023-08-06T02:54:12;20.00;;;7.00;;
60086;SDS011;45960;53.630;55.972;2023-08-06T02:55:14;10.20;;;6.63;;
60086;SDS011;45960;53.630;55.972;2023-08-06T02:56:18;17.25;;;7.63;;
60086;SDS011;45960;53.630;55.972;2023-08-06T02:57:35;12.30;;;6.72;;
60086;SDS011;45960;53.630;55.972;2023-08-06T02:58:36;13.95;;;6.43;;
60086;SDS011;45960;53.630;55.972;2023-08-06T02:59:53;14.40;;;7.07;;
60086;SDS011;45960;53.630;55.972;2023-08-06T03:01:02;10.73;;;6.57;;
60086;SDS011;45960;53.630;55.972;2023-08-06T03:02:09;10.75;;;6.80;;
60086;SDS011;45960;53.630;55.972;2023-08-06T03:03:31;13.30;;;6.53;;
60086;SDS011;45960;53.630;55.972;2023-08-06T03:04:34;14.30;;;6.95;;
60086;SDS011;45960;53.630;55.972;2023-08-06T03:05:35;13.95;;;6.57;;
60086;SDS011;45960;53.630;55.972;2023-08-06T03:06:37;11.10;;;7.15;;
60086;SDS011;45960;53.630;55.972;2023-08-06T03:07:38;21.60;;;7.32;;
60086;SDS011;45960;53.630;55.972;2023-08-06T03:08:49;13.43;;;7.07;;
60086;SDS011;45960;53.630;55.972;2023-08-06T03:09:50;15.90;;;7.28;;
60086;SDS011;45960;53.630;55.972;2023-08-06T03:10:52;11.82;;;7.25;;
60086;SDS011;45960;53.630;55.972;2023-08-06T03:11:54;13.13;;;6.90;;
60086;SDS011;45960;53.630;55.972;2023-08-06T03:12:55;13.20;;;6.15;;
60086;SDS011;45960;53.630;55.972;2023-08-06T03:13:57;17.08;;;7.07;;
60086;SDS011;45960;53.630;55.972;2023-08-06T03:14:58;12.48;;;6.68;;
60086;SDS011;45960;53.630;55.972;2023-08-06T03:15:59;15.25;;;7.40;;
60086;SDS011;45960;53.630;55.972;2023-08-06T03:17:03;14.07;;;6.60;;
60086;SDS011;45960;53.630;55.972;2023-08-06T03:18:04;16.02;;;6.55;;
60086;SDS011;45960;53.630;55.972;2023-08-06T03:19:07;12.52;;;6.75;;
60086;SDS011;45960;53.630;55.972;2023-08-06T03:20:08;9.45;;;6.25;;
60086;SDS011;45960;53.630;55.972;2023-08-06T03:21:10;17.48;;;6.82;;
60086;SDS011;45960;53.630;55.972;2023-08-06T03:22:11;13.27;;;6.63;;
60086;SDS011;45960;53.630;55.972;2023-08-06T03:23:13;11.75;;;7.35;;
60086;SDS011;45960;53.630;55.972;2023-08-06T03:24:15;15.60;;;7.15;;
60086;SDS011;45960;53.630;55.972;2023-08-06T03:25:17;14.63;;;6.72;;
60086;SDS011;45960;53.630;55.972;2023-08-06T03:26:22;12.20;;;6.93;;
60086;SDS011;45960;53.630;55.972;2023-08-06T03:27:23;16.08;;;6.38;;
60086;SDS011;45960;53.630;55.972;2023-08-06T03:28:26;12.77;;;6.63;;
60086;SDS011;45960;53.630;55.972;2023-08-06T03:29:28;14.63;;;6.55;;
60086;SDS011;45960;53.630;55.972;2023-08-06T03:30:36;14.27;;;6.72;;
60086;SDS011;45960;53.630;55.972;2023-08-06T03:31:38;15.60;;;6.88;;
60086;SDS011;45960;53.630;55.972;2023-08-06T03:32:40;10.23;;;6.68;;
60086;SDS011;45960;53.630;55.972;2023-08-06T03:33:41;14.90;;;6.90;;
60086;SDS011;45960;53.630;55.972;2023-08-06T03:34:47;10.65;;;6.22;;
60086;SDS011;45960;53.630;55.972;2023-08-06T03:35:50;13.00;;;6.90;;
60086;SDS011;45960;53.630;55.972;2023-08-06T03:36:51;13.48;;;6.50;;
60086;SDS011;45960;53.630;55.972;2023-08-06T03:37:52;13.85;;;6.60;;
60086;SDS011;45960;53.630;55.972;2023-08-06T03:38:54;14.38;;;6.85;;
60086;SDS011;45960;53.630;55.972;2023-08-06T03:39:55;18.98;;;6.32;;
60086;SDS011;45960;53.630;55.972;2023-08-06T03:40:56;15.38;;;6.13;;
60086;SDS011;45960;53.630;55.972;2023-08-06T03:41:57;12.18;;;6.82;;
60086;SDS011;45960;53.630;55.972;2023-08-06T03:42:59;12.05;;;7.13;;
60086;SDS011;45960;53.630;55.972;2023-08-06T03:44:00;17.95;;;6.57;;
60086;SDS011;45960;53.630;55.972;2023-08-06T03:45:05;15.98;;;6.30;;
60086;SDS011;45960;53.630;55.972;2023-08-06T03:46:07;9.15;;;5.88;;
60086;SDS011;45960;53.630;55.972;2023-08-06T03:47:09;15.25;;;6.57;;
60086;SDS011;45960;53.630;55.972;2023-08-06T03:48:10;12.43;;;6.15;;
60086;SDS011;45960;53.630;55.972;2023-08-06T03:49:11;21.55;;;6.35;;
60086;SDS011;45960;53.630;55.972;2023-08-06T03:50:13;13.20;;;6.90;;
60086;SDS011;45960;53.630;55.972;2023-08-06T03:51:14;12.55;;;6.25;;
60086;SDS011;45960;53.630;55.972;2023-08-06T03:52:17;12.88;;;6.40;;
60086;SDS011;45960;53.630;55.972;2023-08-06T03:53:18;18.15;;;7.03;;
60086;SDS011;45960;53.630;55.972;2023-08-06T03:54:20;12.32;;;6.45;;
60086;SDS011;45960;53.630;55.972;2023-08-06T03:55:21;13.38;;;5.97;;
60086;SDS011;45960;53.630;55.972;2023-08-06T03:56:22;13.35;;;6.75;;
60086;SDS011;45960;53.630;55.972;2023-08-06T03:57:24;13.68;;;6.70;;
60086;SDS011;45960;53.630;55.972;2023-08-06T03:58:25;15.20;;;6.97;;
60086;SDS011;45960;53.630;55.972;2023-08-06T03:59:27;12.88;;;6.68;;
60086;SDS011;45960;53.630;55.972;2023-08-06T04:00:28;13.35;;;6.72;;
60086;SDS011;45960;53.630;55.972;2023-08-06T04:01:30;18.20;;;6.88;;
60086;SDS011;45960;53.630;55.972;2023-08-06T04:02:31;11.77;;;6.28;;
60086;SDS011;45960;53.630;55.972;2023-08-06T04:03:34;10.30;;;6.07;;
60086;SDS011;45960;53.630;55.972;2023-08-06T04:04:36;13.93;;;7.15;;
60086;SDS011;45960;53.630;55.972;2023-08-06T04:05:37;9.80;;;5.82;;
60086;SDS011;45960;53.630;55.972;2023-08-06T04:06:38;13.63;;;6.82;;
60086;SDS011;45960;53.630;55.972;2023-08-06T04:07:39;13.60;;;7.05;;
60086;SDS011;45960;53.630;55.972;2023-08-06T04:08:41;16.00;;;7.18;;
60086;SDS011;45960;53.630;55.972;2023-08-06T04:09:54;11.27;;;6.47;;
60086;SDS011;45960;53.630;55.972;2023-08-06T04:10:58;18.63;;;6.93;;
60086;SDS011;45960;53.630;55.972;2023-08-06T04:11:59;14.27;;;6.75;;
60086;SDS011;45960;53.630;55.972;2023-08-06T04:13:02;14.13;;;6.10;;
60086;SDS011;45960;53.630;55.972;2023-08-06T04:14:04;16.95;;;6.13;;
60086;SDS011;45960;53.630;55.972;2023-08-06T04:15:05;13.73;;;6.18;;
60086;SDS011;45960;53.630;55.972;2023-08-06T04:16:07;12.85;;;6.70;;
60086;SDS011;45960;53.630;55.972;2023-08-06T04:17:08;12.93;;;6.70;;
60086;SDS011;45960;53.630;55.972;2023-08-06T04:18:10;16.30;;;6.38;;
60086;SDS011;45960;53.630;55.972;2023-08-06T04:19:12;17.45;;;6.72;;
60086;SDS011;45960;53.630;55.972;2023-08-06T04:20:13;11.00;;;7.13;;
60086;SDS011;45960;53.630;55.972;2023-08-06T04:21:14;15.27;;;6.95;;
60086;SDS011;45960;53.630;55.972;2023-08-06T04:22:29;10.85;;;6.28;;
60086;SDS011;45960;53.630;55.972;2023-08-06T04:23:30;18.65;;;6.20;;
60086;SDS011;45960;53.630;55.972;2023-08-06T04:24:36;12.43;;;6.25;;
60086;SDS011;45960;53.630;55.972;2023-08-06T04:25:37;12.00;;;6.72;;
60086;SDS011;45960;53.630;55.972;2023-08-06T04:26:39;14.98;;;6.93;;
60086;SDS011;45960;53.630;55.972;2023-08-06T04:27:40;18.70;;;6.97;;
60086;SDS011;45960;53.630;55.972;2023-08-06T04:28:43;13.70;;;6.32;;
60086;SDS011;45960;53.630;55.972;2023-08-06T04:29:44;12.05;;;6.50;;
60086;SDS011;45960;53.630;55.972;2023-08-06T04:30:46;10.38;;;6.57;;
60086;SDS011;45960;53.630;55.972;2023-08-06T04:31:47;11.20;;;5.70;;
60086;SDS011;45960;53.630;55.972;2023-08-06T04:32:49;14.85;;;6.20;;
60086;SDS011;45960;53.630;55.972;2023-08-06T04:33:52;13.98;;;6.88;;
60086;SDS011;45960;53.630;55.972;2023-08-06T04:34:55;13.10;;;7.90;;
60086;SDS011;45960;53.630;55.972;2023-08-06T04:36:04;10.43;;;7.00;;
60086;SDS011;45960;53.630;55.972;2023-08-06T04:37:05;10.98;;;7.13;;
60086;SDS011;45960;53.630;55.972;2023-08-06T04:38:08;12.93;;;6.82;;
60086;SDS011;45960;53.630;55.972;2023-08-06T04:39:09;10.05;;;6.75;;
60086;SDS011;45960;53.630;55.972;2023-08-06T04:40:10;12.93;;;6.30;;
60086;SDS011;45960;53.630;55.972;2023-08-06T04:41:12;10.43;;;6.57;;
60086;SDS011;45960;53.630;55.972;2023-08-06T04:42:15;8.50;;;5.65;;
60086;SDS011;45960;53.630;55.972;2023-08-06T04:43:16;12.60;;;6.38;;
60086;SDS011;45960;53.630;55.972;2023-08-06T04:44:17;9.55;;;5.55;;
60086;SDS011;45960;53.630;55.972;2023-08-06T04:45:19;11.13;;;6.28;;
60086;SDS011;45960;53.630;55.972;2023-08-06T04:46:20;11.38;;;6.30;;
60086;SDS011;45960;53.630;55.972;2023-08-06T04:47:21;30.77;;;6.75;;
60086;SDS011;45960;53.630;55.972;2023-08-06T04:48:22;11.85;;;5.93;;
60086;SDS011;45960;53.630;55.972;2023-08-06T04:49:24;17.88;;;6.15;;
60086;SDS011;45960;53.630;55.972;2023-08-06T04:50:26;11.13;;;5.93;;
60086;SDS011;45960;53.630;55.972;2023-08-06T04:51:27;14.10;;;6.88;;
60086;SDS011;45960;53.630;55.972;2023-08-06T04:52:28;11.15;;;5.88;;
60086;SDS011;45960;53.630;55.972;2023-08-06T04:53:29;9.45;;;5.78;;
60086;SDS011;45960;53.630;55.972;2023-08-06T04:54:31;8.05;;;5.43;;
60086;SDS011;45960;53.630;55.972;2023-08-06T04:55:32;7.97;;;5.40;;
60086;SDS011;45960;53.630;55.972;2023-08-06T04:56:33;10.95;;;5.93;;
60086;SDS011;45960;53.630;55.972;2023-08-06T04:57:34;17.50;;;6.93;;
60086;SDS011;45960;53.630;55.972;2023-08-06T04:58:35;12.55;;;5.93;;
60086;SDS011;45960;53.630;55.972;2023-08-06T04:59:36;12.52;;;5.55;;
60086;SDS011;45960;53.630;55.972;2023-08-06T05:00:37;14.80;;;5.25;;
60086;SDS011;45960;53.630;55.972;2023-08-06T05:01:38;12.32;;;6.00;;
60086;SDS011;45960;53.630;55.972;2023-08-06T05:02:40;14.45;;;6.65;;
60086;SDS011;45960;53.630;55.972;2023-08-06T05:03:42;10.13;;;7.00;;
60086;SDS011;45960;53.630;55.972;2023-08-06T05:04:43;13.90;;;6.90;;
60086;SDS011;45960;53.630;55.972;2023-08-06T05:05:45;11.65;;;7.22;;
60086;SDS011;45960;53.630;55.972;2023-08-06T05:06:47;9.10;;;6.70;;
60086;SDS011;45960;53.630;55.972;2023-08-06T05:07:49;8.88;;;6.63;;
60086;SDS011;45960;53.630;55.972;2023-08-06T05:08:51;10.68;;;6.25;;
60086;SDS011;45960;53.630;55.972;2023-08-06T05:09:52;12.63;;;6.70;;
60086;SDS011;45960;53.630;55.972;2023-08-06T05:10:54;9.40;;;5.45;;
60086;SDS011;45960;53.630;55.972;2023-08-06T05:11:55;15.00;;;6.28;;
60086;SDS011;45960;53.630;55.972;2023-08-06T05:12:56;21.15;;;6.32;;
60086;SDS011;45960;53.630;55.972;2023-08-06T05:13:57;10.52;;;5.72;;
60086;SDS011;45960;53.630;55.972;2023-08-06T05:14:59;23.88;;;6.22;;
60086;SDS011;45960;53.630;55.972;2023-08-06T05:16:00;14.40;;;5.50;;
60086;SDS011;45960;53.630;55.972;2023-08-06T05:17:01;18.20;;;6.38;;
60086;SDS011;45960;53.630;55.972;2023-08-06T05:18:05;7.53;;;5.47;;
60086;SDS011;45960;53.630;55.972;2023-08-06T05:19:06;8.82;;;5.78;;
60086;SDS011;45960;53.630;55.972;2023-08-06T05:20:07;18.20;;;6.03;;
60086;SDS011;45960;53.630;55.972;2023-08-06T05:21:09;8.95;;;5.50;;
60086;SDS011;45960;53.630;55.972;2023-08-06T05:22:10;7.82;;;5.75;;
60086;SDS011;45960;53.630;55.972;2023-08-06T05:23:11;28.27;;;6.50;;
60086;SDS011;45960;53.630;55.972;2023-08-06T05:24:12;15.48;;;5.57;;
60086;SDS011;45960;53.630;55.972;2023-08-06T05:25:14;8.77;;;5.55;;
60086;SDS011;45960;53.630;55.972;2023-08-06T05:26:15;18.88;;;5.50;;
60086;SDS011;45960;53.630;55.972;2023-08-06T05:27:19;9.88;;;5.82;;
60086;SDS011;45960;53.630;55.972;2023-08-06T05:28:20;13.52;;;5.65;;
60086;SDS011;45960;53.630;55.972;2023-08-06T05:29:21;8.60;;;5.00;;
60086;SDS011;45960;53.630;55.972;2023-08-06T05:30:23;10.10;;;4.63;;
60086;SDS011;45960;53.630;55.972;2023-08-06T05:31:24;9.85;;;4.95;;
60086;SDS011;45960;53.630;55.972;2023-08-06T05:32:25;9.88;;;4.78;;
60086;SDS011;45960;53.630;55.972;2023-08-06T05:33:26;9.18;;;6.45;;
60086;SDS011;45960;53.630;55.972;2023-08-06T05:34:27;6.10;;;4.63;;
60086;SDS011;45960;53.630;55.972;2023-08-06T05:35:28;11.02;;;4.90;;
60086;SDS011;45960;53.630;55.972;2023-08-06T05:36:30;13.80;;;4.70;;
60086;SDS011;45960;53.630;55.972;2023-08-06T05:37:31;6.82;;;5.00;;
60086;SDS011;45960;53.630;55.972;2023-08-06T05:38:32;12.02;;;5.13;;
60086;SDS011;45960;53.630;55.972;2023-08-06T05:39:33;9.70;;;4.50;;
60086;SDS011;45960;53.630;55.972;2023-08-06T05:40:34;6.75;;;4.88;;
60086;SDS011;45960;53.630;55.972;2023-08-06T05:41:35;12.05;;;4.53;;
60086;SDS011;45960;53.630;55.972;2023-08-06T05:42:42;8.35;;;4.60;;
60086;SDS011;45960;53.630;55.972;2023-08-06T05:43:51;6.78;;;4.60;;
60086;SDS011;45960;53.630;55.972;2023-08-06T05:44:52;7.45;;;4.55;;
60086;SDS011;45960;53.630;55.972;2023-08-06T05:45:53;10.82;;;4.82;;
60086;SDS011;45960;53.630;55.972;2023-08-06T05:46:54;7.60;;;4.78;;
60086;SDS011;45960;53.630;55.972;2023-08-06T05:47:55;8.05;;;4.25;;
60086;SDS011;45960;53.630;55.972;2023-08-06T05:48:58;15.95;;;4.30;;
60086;SDS011;45960;53.630;55.972;2023-08-06T05:50:00;16.25;;;4.68;;
60086;SDS011;45960;53.630;55.972;2023-08-06T05:51:01;7.95;;;4.70;;
60086;SDS011;45960;53.630;55.972;2023-08-06T05:52:02;5.20;;;4.28;;
60086;SDS011;45960;53.630;55.972;2023-08-06T05:53:06;7.75;;;3.85;;
60086;SDS011;45960;53.630;55.972;2023-08-06T05:54:08;5.57;;;4.00;;
60086;SDS011;45960;53.630;55.972;2023-08-06T05:55:09;10.98;;;4.07;;
60086;SDS011;45960;53.630;55.972;2023-08-06T05:56:10;7.68;;;4.47;;
60086;SDS011;45960;53.630;55.972;2023-08-06T05:57:11;6.70;;;3.75;;
60086;SDS011;45960;53.630;55.972;2023-08-06T05:58:12;5.10;;;3.95;;
60086;SDS011;45960;53.630;55.972;2023-08-06T05:59:13;8.00;;;4.43;;
60086;SDS011;45960;53.630;55.972;2023-08-06T06:00:14;6.50;;;4.10;;
60086;SDS011;45960;53.630;55.972;2023-08-06T06:01:15;8.80;;;4.13;;
60086;SDS011;45960;53.630;55.972;2023-08-06T06:02:17;10.45;;;4.28;;
60086;SDS011;45960;53.630;55.972;2023-08-06T06:03:19;6.13;;;3.80;;
60086;SDS011;45960;53.630;55.972;2023-08-06T06:04:20;6.85;;;3.67;;
60086;SDS011;45960;53.630;55.972;2023-08-06T06:05:22;7.72;;;4.15;;
60086;SDS011;45960;53.630;55.972;2023-08-06T06:06:23;4.93;;;3.80;;
60086;SDS011;45960;53.630;55.972;2023-08-06T06:07:24;7.40;;;4.40;;
60086;SDS011;45960;53.630;55.972;2023-08-06T06:08:25;7.72;;;4.78;;
60086;SDS011;45960;53.630;55.972;2023-08-06T06:09:26;6.68;;;4.38;;
60086;SDS011;45960;53.630;55.972;2023-08-06T06:10:27;6.03;;;3.88;;
60086;SDS011;45960;53.630;55.972;2023-08-06T06:11:28;10.45;;;3.78;;
60086;SDS011;45960;53.630;55.972;2023-08-06T06:12:29;5.75;;;3.47;;
60086;SDS011;45960;53.630;55.972;2023-08-06T06:13:32;8.70;;;4.50;;
60086;SDS011;45960;53.630;55.972;2023-08-06T06:14:35;8.57;;;3.85;;
60086;SDS011;45960;53.630;55.972;2023-08-06T06:15:36;4.00;;;3.28;;